Flight Track Log - Related Links

Times and Time Zones

All times are in EDT time to prevent confusion due to time zone crossing. See the ASQ5992 flight status page for this flight to view local times or setup timezone preferences in your user account.

Time Position Orientation Groundspeed Altitude Reporting Facility
EDT Latitude Longitude Course Direction KTS MPH feet Rate Location/Type
Sat 11:04:53 AM 40.9603 -81.4411 286° West 173 199 2,900  Level Cleveland Center
Sat 11:05:53 AM 40.9725 -81.4989 250° West 203 234 4,500 2,100 Climbing Cleveland Center
Sat 11:06:53 AM 40.9486 -81.5864 256° West 212 244 7,100 2,500 Climbing Cleveland Center
Sat 11:07:53 AM 40.9311 -81.6769 277° West 232 267 9,500 1,900 Climbing Cleveland Center
Sat 11:08:53 AM 40.9406 -81.7789 274° West 263 303 10,900 1,200 Climbing Cleveland Center
Sat 11:09:53 AM 40.9456 -81.8833 279° West 297 342 11,900 1,200 Climbing Cleveland Center
Sat 11:10:53 AM 40.9589 -82.0019 277° West 323 372 13,300 1,500 Climbing Cleveland Center
Sat 11:11:53 AM 40.9697 -82.1231 278° West 339 390 14,900 1,800 Climbing Cleveland Center
Sat 11:12:53 AM 40.9828 -82.2417 276° West 339 390 16,900 1,950 Climbing Cleveland Center
Sat 11:13:53 AM 40.9914 -82.3547 277° West 327 376 18,800 1,450 Climbing Cleveland Center
Sat 11:14:53 AM 41.0039 -82.4817 276° West 322 371 19,800 1,100 Climbing Cleveland Center
Sat 11:15:53 AM 41.0144 -82.6086 276° West 336 387 21,000 1,300 Climbing Cleveland Center
Sat 11:16:53 AM 41.0244 -82.7356 276° West 346 398 22,400 1,350 Climbing Cleveland Center
Sat 11:17:53 AM 41.0344 -82.8625 277° West 352 405 23,700 1,250 Climbing Cleveland Center
Sat 11:18:53 AM 41.0467 -82.9867 277° West 352 405 24,900 1,150 Climbing Cleveland Center
Sat 11:19:53 AM 41.0583 -83.1139 278° West 347 399 26,000 550 Climbing Cleveland Center
Sat 11:20:53 AM 41.0722 -83.2467 276° West 360 414 26,000  Level Cleveland Center
Sat 11:21:53 AM 41.0833 -83.3903 276° West 383 441 26,000  Level Cleveland Center
Sat 11:22:53 AM 41.0928 -83.5119 274° West 389 448 26,000 -400 Level Cleveland Center
Sat 11:23:53 AM 41.1014 -83.6611 275° West 383 441 25,200 -1,450 Descending Cleveland Center
Sat 11:24:53 AM 41.1103 -83.7856 277° West 358 412 23,100 -1,600 Descending Cleveland Center
Sat 11:25:53 AM 41.1217 -83.9047 275° West 358 412 22,000 -431 Descending Cleveland Center
Sat 11:27:26 AM 41.1367 -84.1300 276° West 376 433 22,000  Level Chicago Center
Sat 11:28:26 AM 41.1472 -84.2725 280° West 388 447 22,000  Level Chicago Center
Sat 11:29:26 AM 41.1661 -84.4147 282° West 400 460 22,000  Level Chicago Center
Sat 11:30:26 AM 41.1892 -84.5647 282° West 407 468 22,000  Level Chicago Center
Sat 11:31:26 AM 41.2119 -84.7094 282° West 407 468 22,000  Level Chicago Center
Sat 11:32:26 AM 41.2369 -84.8678 282° West 407 468 22,000  Level Chicago Center
Sat 11:33:26 AM 41.2592 -85.0128 282° West 407 468 22,000  Level Chicago Center
Sat 11:34:26 AM 41.2814 -85.1578 281° West 407 468 22,000  Level Chicago Center
Sat 11:35:26 AM 41.3033 -85.3028 282° West 407 468 22,000  Level Chicago Center
Sat 11:36:26 AM 41.3272 -85.4508 280° West 407 468 22,000  Level Chicago Center
Sat 11:37:26 AM 41.3467 -85.5989 282° West 407 468 22,000  Level Chicago Center
Sat 11:38:26 AM 41.3678 -85.7306 282° West 407 468 22,000  Level Chicago Center
Sat 11:39:26 AM 41.3908 -85.8733 281° West 407 468 22,000  Level Chicago Center
Sat 11:40:26 AM 41.4119 -86.0189 281° West 407 468 22,000  Level Chicago Center
Sat 11:41:26 AM 41.4325 -86.1619 281° West 407 468 22,000  Level Chicago Center
Sat 11:42:26 AM 41.4556 -86.3189 280° West 407 468 22,000  Level Chicago Center
Sat 11:43:26 AM 41.4742 -86.4647 281° West 407 468 22,000 -400 Level Chicago Center
Sat 11:44:26 AM 41.4942 -86.6081 281° West 407 468 21,200 -1,400 Descending Chicago Center
Sat 11:45:26 AM 41.5142 -86.7486 282° West 402 463 19,200 -1,950 Descending Chicago Center
Sat 11:46:26 AM 41.5336 -86.8756 279° West 397 457 17,300 -2,000 Descending Chicago Center
Sat 11:47:26 AM 41.5489 -87.0081 281° West 387 445 15,200 -2,050 Descending Chicago Center
Sat 11:48:26 AM 41.5683 -87.1433 285° West 377 434 13,200 -2,067 Descending Chicago Center
Sat 11:48:56 AM 41.5833 -87.2167 304° West 361 415 12,100 -809 Descending Chicago TRACON
Sat 11:49:55 AM 41.6333 -87.3167 300° West 346 398 12,000 -67 Descending Chicago TRACON
Sat 11:50:26 AM 41.6558 -87.3683 310° West 338 389 12,000  Level Chicago Center
Sat 11:51:26 AM 41.7158 -87.4639 307° West 343 395 12,000 -450 Level Chicago Center
Sat 11:52:26 AM 41.7653 -87.5514 310° West 324 373 11,100 -950 Descending Chicago Center
Sat 11:53:26 AM 41.8081 -87.6200 290° West 281 323 10,100 -1,250 Descending Chicago Center
Sat 11:54:26 AM 41.8278 -87.6947 265° West 248 285 8,600 -1,200 Descending Chicago Center
Sat 11:55:26 AM 41.8228 -87.7783 264° West 218 251 7,700 -700 Descending Chicago Center
Sat 11:56:26 AM 41.8175 -87.8511 245° Southwest 213 245 7,200 -323 Descending Chicago Center
Sat 11:58:32 AM 41.7667 -88.0000 217° Southwest 212 244 6,700 -533 Descending Chicago TRACON
Sat 11:59:26 AM 41.7333 -88.0333 289° West 203 234 5,600 -1,105 Descending Chicago TRACON
Sat 12:00:26 PM 41.7500 -88.1000 360° North 194 223 4,600 -800 Descending Chicago TRACON
Sat 12:01:26 PM 41.7833 -88.1000 48° Northeast 191 220 4,000 -300 Descending Chicago TRACON
Sat 12:02:26 PM 41.8167 -88.0500 26° Northeast 180 207 4,000 -400 Level Chicago TRACON
Sat 12:03:26 PM 41.8667 -88.0167 48° Northeast 176 203 3,200 -893 Descending Chicago TRACON
Sat 12:04:27 PM 41.9000 -87.9667 37° Northeast 174 200 2,200 -857 Descending Chicago TRACON
Sat 12:05:32 PM 41.9333 -87.9333 37° Northeast 128 147 1,400 -738 Descending Chicago TRACON

Login

Don't have an account? Register now (free) for customized features, flight alerts, and more!